Time;durP1;ratioP1;P1;durP2;ratioP2;P2;SDS_P1;SDS_P2;PMS_P1;PMS_P2;Temp;Humidity;BMP_temperature;BMP_pressure;BME280_temperature;BME280_humidity;BME280_pressure;Samples;Min_cycle;Max_cycle;Signal;HPM_P1;HPM_P2
2023/02/12 00:01:54;;;;;;;166.05;56.63;;;;;;;;;;5014693;28;20309;-73
2023/02/12 00:04:23;;;;;;;169.75;55.83;;;;;;;;;;5019990;28;20330;-74
2023/02/12 00:06:56;;;;;;;234.00;71.57;;;;;;;;;;5019315;28;20309;-73
2023/02/12 00:09:30;;;;;;;236.75;80.10;;;;;;;;;;5014152;28;20215;-73
2023/02/12 00:11:58;;;;;;;172.63;64.93;;;;;;;;;;4998945;28;20305;-72
2023/02/12 00:14:34;;;;;;;240.20;77.82;;;;;;;;;;5000845;28;20207;-73
2023/02/12 00:17:17;;;;;;;161.95;60.55;;;;;;;;;;5000957;28;20490;-74
2023/02/12 00:19:45;;;;;;;233.25;79.65;;;;;;;;;;5002577;28;20221;-73
2023/02/12 00:25:17;;;;;;;229.55;74.68;;;;;;;;;;4998412;28;20234;-73
2023/02/12 00:28:02;;;;;;;191.82;64.85;;;;;;;;;;5002760;28;20522;-75
2023/02/12 00:30:35;;;;;;;171.45;62.80;;;;;;;;;;4996584;28;20214;-73
2023/02/12 00:33:09;;;;;;;235.32;79.05;;;;;;;;;;4998440;28;20390;-75
2023/02/12 00:35:37;;;;;;;195.45;67.13;;;;;;;;;;4987578;28;20277;-74
2023/02/12 00:38:18;;;;;;;187.05;56.17;;;;;;;;;;5003947;28;20603;-74
2023/02/12 00:40:50;;;;;;;153.95;50.53;;;;;;;;;;5016940;28;20650;-73
2023/02/12 00:43:23;;;;;;;168.07;55.25;;;;;;;;;;5019171;28;20253;-73
2023/02/12 00:45:58;;;;;;;169.68;54.13;;;;;;;;;;5019183;28;20237;-74
2023/02/12 00:48:29;;;;;;;230.80;68.47;;;;;;;;;;5020268;28;20210;-75
2023/02/12 00:50:56;;;;;;;169.75;54.88;;;;;;;;;;5020556;28;20221;-74
2023/02/12 00:53:35;;;;;;;188.52;56.53;;;;;;;;;;5019689;28;20225;-74
2023/02/12 00:56:22;;;;;;;163.40;53.42;;;;;;;;;;5020157;28;20226;-72
2023/02/12 00:58:54;;;;;;;218.15;65.43;;;;;;;;;;5021292;28;20225;-73
2023/02/12 01:01:50;;;;;;;185.75;56.95;;;;;;;;;;5016074;28;20214;-73
2023/02/12 01:04:25;;;;;;;172.55;52.03;;;;;;;;;;5000613;28;20239;-73
2023/02/12 01:07:01;;;;;;;161.57;54.40;;;;;;;;;;5000326;28;20325;-73
2023/02/12 01:09:31;;;;;;;164.55;50.95;;;;;;;;;;4998967;28;20226;-74
2023/02/12 01:11:58;;;;;;;166.85;54.90;;;;;;;;;;5000728;28;20223;-74
2023/02/12 01:14:26;;;;;;;246.43;69.55;;;;;;;;;;5000674;28;20221;-73
2023/02/12 01:17:14;;;;;;;167.02;54.17;;;;;;;;;;5015677;28;20495;-73
2023/02/12 01:19:47;;;;;;;170.27;56.20;;;;;;;;;;5018991;28;20216;-74
2023/02/12 01:22:42;;;;;;;232.80;70.53;;;;;;;;;;5017541;28;20226;-73
2023/02/12 01:25:19;;;;;;;216.38;64.40;;;;;;;;;;5017242;28;20242;-73
2023/02/12 01:28:01;;;;;;;231.50;68.78;;;;;;;;;;5006539;28;20571;-75
2023/02/12 01:30:29;;;;;;;228.48;69.97;;;;;;;;;;5020454;28;20222;-73
2023/02/12 01:33:16;;;;;;;225.93;69.38;;;;;;;;;;5020285;28;20218;-74
2023/02/12 01:36:03;;;;;;;229.77;69.13;;;;;;;;;;5020536;28;20287;-73
2023/02/12 01:38:38;;;;;;;186.30;57.58;;;;;;;;;;5018573;28;20221;-74
2023/02/12 01:41:11;;;;;;;186.77;56.22;;;;;;;;;;5020822;28;20228;-75
2023/02/12 01:43:39;;;;;;;185.35;55.58;;;;;;;;;;5020777;28;20241;-73
2023/02/12 01:49:04;;;;;;;163.85;53.80;;;;;;;;;;5019112;28;20233;-73
2023/02/12 01:51:43;;;;;;;167.85;55.72;;;;;;;;;;5019414;28;20221;-72
2023/02/12 01:54:15;;;;;;;157.43;47.20;;;;;;;;;;5019337;28;20244;-73
2023/02/12 01:56:43;;;;;;;187.10;55.90;;;;;;;;;;5018505;28;20682;-74
2023/02/12 01:59:12;;;;;;;170.85;52.55;;;;;;;;;;5018477;28;20229;-75
2023/02/12 02:01:40;;;;;;;184.07;55.70;;;;;;;;;;5014049;28;20218;-74
2023/02/12 02:04:14;;;;;;;165.73;54.00;;;;;;;;;;5019408;28;20288;-73
2023/02/12 02:06:46;;;;;;;167.20;54.78;;;;;;;;;;5014862;28;20534;-73
2023/02/12 02:09:18;;;;;;;223.32;73.90;;;;;;;;;;5000577;28;20215;-73
2023/02/12 02:14:35;;;;;;;174.63;61.22;;;;;;;;;;4989911;28;20217;-73
2023/02/12 02:17:18;;;;;;;224.88;70.40;;;;;;;;;;4995819;28;20244;-73
2023/02/12 02:19:57;;;;;;;228.00;69.30;;;;;;;;;;5013766;28;20316;-74
2023/02/12 02:22:34;;;;;;;229.43;68.47;;;;;;;;;;5015366;28;20452;-74
2023/02/12 02:25:34;;;;;;;175.23;60.67;;;;;;;;;;5005811;28;20313;-73
2023/02/12 02:28:10;;;;;;;220.55;68.55;;;;;;;;;;4946413;28;20243;-73
2023/02/12 02:30:45;;;;;;;226.38;67.13;;;;;;;;;;5001517;28;20256;-74
2023/02/12 02:33:34;;;;;;;185.20;55.55;;;;;;;;;;5017575;28;20229;-75
2023/02/12 02:36:19;;;;;;;154.68;52.08;;;;;;;;;;5017753;28;20242;-74
2023/02/12 02:38:51;;;;;;;183.95;55.47;;;;;;;;;;5018870;28;20218;-74
2023/02/12 02:41:32;;;;;;;161.05;53.97;;;;;;;;;;5018814;28;20241;-74
2023/02/12 02:44:20;;;;;;;227.98;69.40;;;;;;;;;;5019166;28;20222;-74
2023/02/12 02:46:57;;;;;;;225.88;70.32;;;;;;;;;;5010307;28;20224;-72
2023/02/12 02:49:41;;;;;;;182.60;56.35;;;;;;;;;;5020127;28;20222;-75
2023/02/12 02:52:16;;;;;;;185.88;57.17;;;;;;;;;;5018095;28;20219;-74
2023/02/12 02:54:46;;;;;;;228.52;73.13;;;;;;;;;;5016002;28;20558;-75
2023/02/12 02:57:22;;;;;;;234.13;73.10;;;;;;;;;;5012847;28;20286;-75
2023/02/12 02:59:52;;;;;;;187.48;57.00;;;;;;;;;;4997786;28;20238;-74
2023/02/12 03:02:29;;;;;;;178.57;55.15;;;;;;;;;;4999643;28;20230;-74
2023/02/12 03:05:00;;;;;;;225.35;69.82;;;;;;;;;;4997655;28;20238;-74
2023/02/12 03:07:46;;;;;;;226.45;71.65;;;;;;;;;;4998131;28;20592;-73
2023/02/12 03:10:26;;;;;;;187.30;60.85;;;;;;;;;;4996959;28;20229;-75
2023/02/12 03:13:04;;;;;;;166.70;55.28;;;;;;;;;;4999785;28;20659;-75
2023/02/12 03:15:36;;;;;;;162.18;51.00;;;;;;;;;;4998255;28;20214;-75
2023/02/12 03:18:12;;;;;;;183.32;55.63;;;;;;;;;;4999236;28;20561;-75
2023/02/12 03:20:59;;;;;;;166.25;60.90;;;;;;;;;;4994518;28;20223;-73
2023/02/12 03:23:34;;;;;;;224.13;67.82;;;;;;;;;;4993069;28;20223;-73
2023/02/12 03:26:19;;;;;;;219.40;68.60;;;;;;;;;;4994104;28;20246;-74
2023/02/12 03:28:47;;;;;;;229.15;70.63;;;;;;;;;;4999445;28;20301;-75
2023/02/12 03:31:20;;;;;;;228.27;69.40;;;;;;;;;;5016742;28;20218;-75
2023/02/12 03:33:56;;;;;;;171.70;53.25;;;;;;;;;;5024191;28;20617;-74
2023/02/12 03:36:27;;;;;;;162.68;53.53;;;;;;;;;;5023281;28;20510;-73
2023/02/12 03:39:04;;;;;;;223.80;68.38;;;;;;;;;;5023591;28;20225;-75
2023/02/12 03:41:34;;;;;;;181.15;55.42;;;;;;;;;;5023782;28;20224;-75
2023/02/12 03:44:06;;;;;;;219.18;68.07;;;;;;;;;;5022192;28;20226;-74
2023/02/12 03:46:41;;;;;;;186.02;62.25;;;;;;;;;;5022180;28;20234;-75
2023/02/12 03:49:17;;;;;;;173.00;55.25;;;;;;;;;;5008559;28;20609;-72
2023/02/12 03:51:48;;;;;;;229.93;76.22;;;;;;;;;;5020259;28;20213;-74
2023/02/12 03:54:21;;;;;;;222.45;70.25;;;;;;;;;;5020701;28;20226;-73
2023/02/12 03:56:51;;;;;;;183.52;54.65;;;;;;;;;;5023318;28;20218;-75
2023/02/12 03:59:19;;;;;;;185.38;56.20;;;;;;;;;;5022609;28;20207;-73
2023/02/12 04:01:48;;;;;;;223.23;68.25;;;;;;;;;;5024003;28;20229;-75
2023/02/12 04:04:18;;;;;;;227.02;70.00;;;;;;;;;;5022231;28;20219;-74
2023/02/12 04:06:46;;;;;;;163.85;54.72;;;;;;;;;;5023434;28;20276;-74
2023/02/12 04:09:16;;;;;;;163.75;53.75;;;;;;;;;;5024210;28;20266;-75
2023/02/12 04:11:51;;;;;;;166.65;56.10;;;;;;;;;;5023301;28;20267;-75
2023/02/12 04:14:25;;;;;;;171.40;52.63;;;;;;;;;;5022524;28;20221;-75
2023/02/12 04:16:55;;;;;;;163.95;54.75;;;;;;;;;;5023332;28;20224;-74
2023/02/12 04:19:28;;;;;;;159.93;52.67;;;;;;;;;;5024317;28;20218;-75
2023/02/12 04:22:04;;;;;;;183.88;56.45;;;;;;;;;;5023726;28;20309;-75
2023/02/12 04:24:37;;;;;;;184.63;55.63;;;;;;;;;;5024164;28;20222;-75
2023/02/12 04:27:09;;;;;;;185.68;57.05;;;;;;;;;;5023670;28;20337;-76
2023/02/12 04:29:42;;;;;;;225.93;68.38;;;;;;;;;;5021619;28;20591;-75
2023/02/12 04:32:13;;;;;;;188.20;57.25;;;;;;;;;;5022477;28;20210;-74
2023/02/12 04:34:46;;;;;;;223.02;68.38;;;;;;;;;;5023788;28;20472;-73
2023/02/12 04:37:17;;;;;;;226.50;70.72;;;;;;;;;;5023123;28;20264;-74
2023/02/12 04:39:47;;;;;;;228.02;68.75;;;;;;;;;;5023613;28;20222;-75
2023/02/12 04:42:18;;;;;;;221.45;67.50;;;;;;;;;;5022660;28;20246;-74
2023/02/12 04:44:46;;;;;;;224.23;70.25;;;;;;;;;;5018478;28;20218;-75
2023/02/12 04:47:17;;;;;;;186.45;55.95;;;;;;;;;;5020568;28;20577;-74
2023/02/12 04:49:49;;;;;;;225.38;69.53;;;;;;;;;;5009905;28;20284;-75
2023/02/12 04:52:16;;;;;;;160.52;52.85;;;;;;;;;;5017864;28;20594;-74
2023/02/12 04:54:44;;;;;;;180.38;54.80;;;;;;;;;;5019461;28;20221;-75
2023/02/12 04:57:11;;;;;;;164.38;54.60;;;;;;;;;;5015917;28;20213;-74
2023/02/12 04:59:40;;;;;;;223.40;68.18;;;;;;;;;;5015601;28;20222;-72
2023/02/12 05:02:10;;;;;;;182.27;54.45;;;;;;;;;;5018263;28;20495;-73
2023/02/12 05:04:38;;;;;;;220.20;66.90;;;;;;;;;;5019483;28;20579;-74
2023/02/12 05:07:07;;;;;;;225.07;66.75;;;;;;;;;;5018311;28;20229;-75
2023/02/12 05:09:34;;;;;;;164.82;59.05;;;;;;;;;;5017658;28;20222;-74
2023/02/12 05:12:05;;;;;;;228.30;68.53;;;;;;;;;;5019656;28;20222;-72
2023/02/12 05:14:33;;;;;;;159.00;53.65;;;;;;;;;;5018412;28;20223;-74
2023/02/12 05:17:13;;;;;;;170.38;52.28;;;;;;;;;;5019959;28;20242;-75
2023/02/12 05:19:40;;;;;;;233.70;67.90;;;;;;;;;;5020802;28;20225;-75
2023/02/12 05:22:13;;;;;;;183.32;56.53;;;;;;;;;;5018977;28;20214;-74
2023/02/12 05:24:41;;;;;;;228.77;68.60;;;;;;;;;;5020278;28;20630;-74
2023/02/12 05:27:09;;;;;;;163.40;53.30;;;;;;;;;;5019477;28;20321;-75
2023/02/12 05:29:43;;;;;;;235.55;70.43;;;;;;;;;;5020308;28;20292;-73
2023/02/12 05:32:13;;;;;;;165.23;54.28;;;;;;;;;;5019569;28;20283;-75
2023/02/12 05:34:41;;;;;;;164.48;50.15;;;;;;;;;;5019521;28;20308;-73
2023/02/12 05:37:10;;;;;;;181.15;55.10;;;;;;;;;;5022241;28;20222;-74
2023/02/12 05:39:41;;;;;;;224.20;67.93;;;;;;;;;;5020493;28;20285;-72
2023/02/12 05:42:09;;;;;;;164.05;53.63;;;;;;;;;;5005655;28;20576;-72
2023/02/12 05:44:36;;;;;;;168.45;54.30;;;;;;;;;;5000220;28;20226;-72
2023/02/12 05:47:04;;;;;;;170.73;52.22;;;;;;;;;;5001414;28;20239;-73
2023/02/12 05:49:32;;;;;;;167.50;54.90;;;;;;;;;;5019905;28;20218;-75
2023/02/12 05:52:02;;;;;;;219.65;67.03;;;;;;;;;;5019359;28;20211;-74
2023/02/12 05:54:31;;;;;;;183.57;56.42;;;;;;;;;;5019648;28;20248;-75
2023/02/12 05:56:59;;;;;;;220.00;67.57;;;;;;;;;;5019029;28;20214;-74
2023/02/12 05:59:27;;;;;;;164.55;54.28;;;;;;;;;;5000652;28;20531;-74
2023/02/12 06:02:10;;;;;;;222.15;67.53;;;;;;;;;;4999220;28;20229;-74
2023/02/12 06:04:38;;;;;;;187.57;55.30;;;;;;;;;;4999664;28;20305;-75
2023/02/12 06:07:06;;;;;;;184.20;55.22;;;;;;;;;;4999217;28;20275;-76
2023/02/12 06:09:35;;;;;;;163.43;54.17;;;;;;;;;;5008219;28;20218;-75
2023/02/12 06:12:03;;;;;;;220.85;67.78;;;;;;;;;;5019605;28;20260;-74
2023/02/12 06:14:44;;;;;;;183.48;56.85;;;;;;;;;;5019222;28;20219;-75
2023/02/12 06:17:19;;;;;;;184.30;55.72;;;;;;;;;;5019318;28;20214;-74
2023/02/12 06:19:47;;;;;;;179.65;54.35;;;;;;;;;;5018290;28;20280;-73
2023/02/12 06:22:15;;;;;;;161.98;53.08;;;;;;;;;;5018442;28;20274;-75
2023/02/12 06:24:44;;;;;;;164.45;54.55;;;;;;;;;;5018349;28;20237;-74
2023/02/12 06:27:12;;;;;;;221.90;68.22;;;;;;;;;;5017303;28;20627;-75
2023/02/12 06:29:40;;;;;;;184.68;55.38;;;;;;;;;;5019041;28;20230;-74
2023/02/12 06:32:08;;;;;;;164.13;54.08;;;;;;;;;;5018091;28;20213;-74
2023/02/12 06:34:37;;;;;;;227.77;68.13;;;;;;;;;;5018551;28;20235;-73
2023/02/12 06:37:05;;;;;;;232.13;68.90;;;;;;;;;;5017794;28;20222;-75
2023/02/12 06:39:33;;;;;;;185.73;55.50;;;;;;;;;;5017917;28;20280;-74
2023/02/12 06:42:02;;;;;;;224.15;68.32;;;;;;;;;;5018213;28;20221;-74
2023/02/12 06:44:31;;;;;;;164.30;53.70;;;;;;;;;;5017477;28;20222;-73
2023/02/12 06:47:03;;;;;;;227.05;68.80;;;;;;;;;;5015740;28;20249;-77
2023/02/12 06:49:39;;;;;;;233.50;72.00;;;;;;;;;;4997861;28;20258;-73
2023/02/12 06:52:07;;;;;;;229.55;69.50;;;;;;;;;;4998358;28;20282;-75
2023/02/12 06:54:34;;;;;;;177.57;53.17;;;;;;;;;;4998309;28;20214;-75
2023/02/12 06:57:03;;;;;;;183.18;56.08;;;;;;;;;;4997736;28;20245;-75
2023/02/12 06:59:31;;;;;;;165.82;54.25;;;;;;;;;;4998513;28;20223;-75
2023/02/12 07:01:59;;;;;;;228.25;69.50;;;;;;;;;;4998836;28;20234;-75
2023/02/12 07:04:27;;;;;;;188.30;57.45;;;;;;;;;;4998547;28;20219;-75
2023/02/12 07:06:58;;;;;;;191.23;57.65;;;;;;;;;;4999304;28;20234;-75
2023/02/12 07:09:26;;;;;;;167.35;54.88;;;;;;;;;;4997626;28;20215;-75
2023/02/12 07:11:55;;;;;;;228.60;69.60;;;;;;;;;;5006422;28;20219;-75
2023/02/12 07:14:25;;;;;;;189.20;57.60;;;;;;;;;;4997756;28;20219;-74
2023/02/12 07:16:53;;;;;;;189.77;57.83;;;;;;;;;;4997887;28;20214;-74
2023/02/12 07:19:23;;;;;;;188.20;57.17;;;;;;;;;;5013038;28;20218;-74
2023/02/12 07:22:01;;;;;;;234.88;69.72;;;;;;;;;;5017093;28;20227;-72
2023/02/12 07:24:29;;;;;;;166.20;54.28;;;;;;;;;;5017412;28;20518;-74
2023/02/12 07:26:56;;;;;;;166.23;54.17;;;;;;;;;;5014974;28;20238;-75
2023/02/12 07:29:29;;;;;;;171.07;57.45;;;;;;;;;;5017950;28;20625;-74
2023/02/12 07:31:56;;;;;;;168.63;55.35;;;;;;;;;;5001941;28;20234;-75
2023/02/12 07:34:24;;;;;;;168.50;55.22;;;;;;;;;;5010677;28;20232;-74
2023/02/12 07:36:51;;;;;;;168.63;55.50;;;;;;;;;;5013792;28;20240;-74
2023/02/12 07:39:19;;;;;;;166.75;55.28;;;;;;;;;;5017385;28;20567;-75
2023/02/12 07:41:54;;;;;;;228.93;69.07;;;;;;;;;;5017117;28;20527;-76
2023/02/12 07:44:26;;;;;;;168.93;56.50;;;;;;;;;;5000556;28;20478;-74
2023/02/12 07:47:05;;;;;;;162.60;52.17;;;;;;;;;;4997938;28;20618;-74
2023/02/12 07:49:34;;;;;;;237.27;72.15;;;;;;;;;;5012517;28;20215;-75
2023/02/12 07:52:07;;;;;;;171.18;55.60;;;;;;;;;;5016069;28;20215;-75
2023/02/12 07:54:35;;;;;;;233.68;71.65;;;;;;;;;;5016497;28;20290;-74
2023/02/12 07:57:03;;;;;;;188.88;57.58;;;;;;;;;;5016846;28;20230;-74
2023/02/12 07:59:32;;;;;;;227.95;70.63;;;;;;;;;;5015544;28;20249;-75
2023/02/12 08:02:04;;;;;;;226.07;68.57;;;;;;;;;;5012688;28;20273;-74
2023/02/12 08:04:35;;;;;;;167.38;55.00;;;;;;;;;;5014992;28;20224;-73
2023/02/12 08:07:03;;;;;;;174.50;54.95;;;;;;;;;;5014679;28;20243;-72
2023/02/12 08:09:36;;;;;;;171.38;55.42;;;;;;;;;;5014603;28;20227;-75
2023/02/12 08:12:19;;;;;;;190.68;58.45;;;;;;;;;;5007261;28;20215;-76
2023/02/12 08:14:53;;;;;;;187.60;58.80;;;;;;;;;;5006216;28;20265;-74
2023/02/12 08:17:30;;;;;;;185.98;58.05;;;;;;;;;;5013854;28;20222;-74
2023/02/12 08:19:59;;;;;;;224.55;69.30;;;;;;;;;;5012525;28;20313;-74
2023/02/12 08:22:30;;;;;;;185.98;57.63;;;;;;;;;;5020934;28;20226;-74
2023/02/12 08:24:57;;;;;;;188.18;56.90;;;;;;;;;;5021041;28;20218;-73
2023/02/12 08:27:25;;;;;;;170.15;57.28;;;;;;;;;;5010314;28;20227;-74
2023/02/12 08:29:57;;;;;;;232.93;71.35;;;;;;;;;;5000904;28;20219;-73
2023/02/12 08:32:51;;;;;;;236.25;73.57;;;;;;;;;;5011797;28;20214;-75
2023/02/12 08:35:19;;;;;;;231.82;72.07;;;;;;;;;;5019338;28;20275;-74
2023/02/12 08:37:47;;;;;;;191.10;59.05;;;;;;;;;;5019806;28;20711;-74
2023/02/12 08:40:21;;;;;;;178.10;59.08;;;;;;;;;;5019951;28;20261;-75
2023/02/12 08:42:53;;;;;;;170.50;56.90;;;;;;;;;;5014737;28;20225;-73
2023/02/12 08:45:28;;;;;;;182.35;57.92;;;;;;;;;;4999769;28;20226;-73
2023/02/12 08:47:57;;;;;;;240.65;75.90;;;;;;;;;;5008782;28;20245;-74
2023/02/12 08:50:26;;;;;;;232.70;72.05;;;;;;;;;;5018308;28;20575;-74
2023/02/12 08:52:56;;;;;;;191.88;60.35;;;;;;;;;;5015124;28;20218;-74
2023/02/12 08:55:24;;;;;;;188.75;58.85;;;;;;;;;;5017292;28;20885;-73
2023/02/12 08:57:56;;;;;;;177.73;54.97;;;;;;;;;;5017400;28;20294;-75
2023/02/12 09:00:36;;;;;;;244.55;81.70;;;;;;;;;;5012324;28;20219;-73
2023/02/12 09:03:19;;;;;;;202.25;71.00;;;;;;;;;;5010114;28;20217;-73
2023/02/12 09:05:47;;;;;;;200.45;69.57;;;;;;;;;;5000134;28;20852;-74
2023/02/12 09:08:25;;;;;;;179.23;67.47;;;;;;;;;;5000732;28;20262;-74
2023/02/12 09:10:54;;;;;;;198.48;71.18;;;;;;;;;;4998422;28;20215;-74
2023/02/12 09:13:21;;;;;;;246.57;83.13;;;;;;;;;;5006308;28;20241;-74
2023/02/12 09:15:49;;;;;;;196.57;69.47;;;;;;;;;;5008478;28;20245;-73
2023/02/12 09:18:36;;;;;;;196.02;62.05;;;;;;;;;;5013234;28;20215;-74
2023/02/12 09:21:05;;;;;;;173.30;58.63;;;;;;;;;;5007795;28;20618;-73
2023/02/12 09:23:36;;;;;;;200.30;66.32;;;;;;;;;;5009719;28;20250;-74
2023/02/12 09:26:07;;;;;;;195.38;65.03;;;;;;;;;;5011687;28;20222;-73
2023/02/12 09:28:36;;;;;;;200.43;60.13;;;;;;;;;;5002950;28;20239;-76
2023/02/12 09:31:06;;;;;;;241.98;73.55;;;;;;;;;;5015156;28;20226;-74
2023/02/12 09:33:58;;;;;;;196.88;65.10;;;;;;;;;;5014280;28;20301;-74
2023/02/12 09:39:17;;;;;;;240.50;75.40;;;;;;;;;;4994541;28;20215;-75
2023/02/12 09:42:06;;;;;;;240.25;74.78;;;;;;;;;;5007396;28;20629;-75
2023/02/12 09:44:42;;;;;;;186.90;57.42;;;;;;;;;;5013991;28;20309;-74
2023/02/12 09:47:17;;;;;;;195.13;59.08;;;;;;;;;;5009655;28;20234;-75
2023/02/12 09:50:12;;;;;;;197.23;60.78;;;;;;;;;;5007727;28;20210;-75
2023/02/12 09:52:53;;;;;;;174.65;57.38;;;;;;;;;;5013966;28;20221;-76
2023/02/12 09:55:23;;;;;;;234.73;73.50;;;;;;;;;;5014083;28;20738;-74
2023/02/12 09:57:53;;;;;;;179.90;58.33;;;;;;;;;;5011979;28;21312;-75
2023/02/12 10:00:30;;;;;;;245.05;73.68;;;;;;;;;;5006245;28;20207;-74
2023/02/12 10:02:58;;;;;;;246.52;78.50;;;;;;;;;;5012323;28;20225;-74
2023/02/12 10:05:29;;;;;;;199.73;61.30;;;;;;;;;;5016845;28;20226;-75
2023/02/12 10:08:18;;;;;;;178.60;59.85;;;;;;;;;;5017197;28;20658;-75
2023/02/12 10:10:56;;;;;;;242.88;74.47;;;;;;;;;;5013499;28;20233;-74
2023/02/12 10:13:35;;;;;;;199.20;59.83;;;;;;;;;;5016560;28;20217;-74
2023/02/12 10:16:07;;;;;;;189.82;58.95;;;;;;;;;;5016636;28;20219;-76
2023/02/12 10:18:43;;;;;;;199.15;60.60;;;;;;;;;;5009066;28;20230;-75
2023/02/12 10:21:29;;;;;;;179.93;60.10;;;;;;;;;;5013304;28;20495;-77
2023/02/12 10:24:06;;;;;;;243.20;75.30;;;;;;;;;;5016408;28;20230;-76
2023/02/12 10:26:38;;;;;;;240.00;73.05;;;;;;;;;;5016880;28;20514;-75
2023/02/12 10:29:12;;;;;;;191.00;57.92;;;;;;;;;;5010723;28;20234;-75
2023/02/12 10:31:47;;;;;;;178.77;58.97;;;;;;;;;;5011167;28;20226;-74
2023/02/12 10:34:19;;;;;;;197.52;59.55;;;;;;;;;;5015361;28;20311;-75
2023/02/12 10:36:54;;;;;;;180.38;60.80;;;;;;;;;;5014973;28;20226;-74
2023/02/12 10:39:25;;;;;;;196.48;59.38;;;;;;;;;;5015774;28;20561;-75
2023/02/12 10:41:58;;;;;;;251.27;86.38;;;;;;;;;;5005613;28;20222;-74
2023/02/12 10:44:35;;;;;;;194.40;62.90;;;;;;;;;;5013190;28;20320;-75
2023/02/12 10:47:03;;;;;;;249.55;87.95;;;;;;;;;;5000608;28;20238;-75
2023/02/12 10:49:32;;;;;;;184.85;60.58;;;;;;;;;;5012517;28;20402;-74
2023/02/12 10:52:06;;;;;;;181.40;59.67;;;;;;;;;;5013109;28;20546;-74
2023/02/12 10:54:39;;;;;;;248.50;80.30;;;;;;;;;;5015353;28;20318;-74
2023/02/12 10:57:11;;;;;;;201.18;65.78;;;;;;;;;;5004536;28;20247;-74
2023/02/12 10:59:40;;;;;;;202.00;64.25;;;;;;;;;;5011535;28;20276;-74
2023/02/12 11:02:19;;;;;;;248.68;80.35;;;;;;;;;;5016291;28;20507;-76
2023/02/12 11:04:48;;;;;;;239.38;73.72;;;;;;;;;;5014508;28;20630;-75
2023/02/12 11:07:16;;;;;;;183.48;60.65;;;;;;;;;;5005490;28;20332;-74
2023/02/12 11:09:45;;;;;;;188.88;65.90;;;;;;;;;;5011499;28;20525;-75
2023/02/12 11:12:24;;;;;;;242.23;75.75;;;;;;;;;;5021384;28;20654;-74
2023/02/12 11:14:57;;;;;;;249.07;76.90;;;;;;;;;;5003012;28;20220;-75
2023/02/12 11:17:28;;;;;;;258.52;80.40;;;;;;;;;;5013602;28;20216;-75
2023/02/12 11:20:12;;;;;;;197.32;61.47;;;;;;;;;;5015849;28;20555;-75
2023/02/12 11:22:50;;;;;;;242.32;78.15;;;;;;;;;;5014790;28;20269;-76
2023/02/12 11:25:18;;;;;;;242.20;75.50;;;;;;;;;;5015693;28;20229;-76
2023/02/12 11:28:00;;;;;;;184.25;58.60;;;;;;;;;;5016225;28;20245;-76
2023/02/12 11:30:28;;;;;;;240.18;73.47;;;;;;;;;;5015451;28;20602;-75
2023/02/12 11:32:56;;;;;;;246.02;75.15;;;;;;;;;;5014721;28;20220;-76
2023/02/12 11:35:34;;;;;;;253.18;77.65;;;;;;;;;;5015908;28;20215;-75
2023/02/12 11:38:02;;;;;;;248.20;76.47;;;;;;;;;;5024701;28;20673;-75
2023/02/12 11:40:34;;;;;;;246.60;76.47;;;;;;;;;;5029186;28;20209;-76
2023/02/12 11:43:20;;;;;;;181.48;57.88;;;;;;;;;;5011824;28;20222;-74
2023/02/12 11:45:55;;;;;;;245.77;78.85;;;;;;;;;;5007064;28;20309;-76
2023/02/12 11:48:24;;;;;;;238.25;74.78;;;;;;;;;;5008302;28;20793;-75
2023/02/12 11:50:54;;;;;;;249.68;77.75;;;;;;;;;;5006216;28;20630;-73
2023/02/12 11:53:24;;;;;;;200.35;63.95;;;;;;;;;;5017421;28;20269;-72
2023/02/12 11:55:59;;;;;;;198.20;59.55;;;;;;;;;;5003302;28;20218;-75
2023/02/12 11:58:29;;;;;;;247.85;75.32;;;;;;;;;;5009479;28;20654;-74
2023/02/12 12:01:09;;;;;;;243.85;74.35;;;;;;;;;;5003275;28;20614;-75
2023/02/12 12:03:42;;;;;;;194.82;59.88;;;;;;;;;;5006765;28;20222;-72
2023/02/12 12:06:17;;;;;;;199.02;60.47;;;;;;;;;;5002183;28;20555;-74
2023/02/12 12:08:52;;;;;;;251.10;74.68;;;;;;;;;;5003824;28;20241;-75
2023/02/12 12:11:25;;;;;;;245.27;74.10;;;;;;;;;;5004565;28;20758;-74
2023/02/12 12:13:57;;;;;;;248.48;76.90;;;;;;;;;;5005034;28;20231;-74
2023/02/12 12:22:04;;;;;;;243.05;73.70;;;;;;;;;;5002028;28;20305;-73
2023/02/12 12:24:42;;;;;;;198.73;60.88;;;;;;;;;;5006479;28;20794;-74
2023/02/12 12:28:01;;;;;;;183.15;61.22;;;;;;;;;;5002921;28;20226;-73
2023/02/12 12:30:47;;;;;;;196.10;58.58;;;;;;;;;;5008527;28;21001;-74
2023/02/12 12:33:43;;;;;;;246.95;73.65;;;;;;;;;;5016682;28;20261;-73
2023/02/12 12:36:39;;;;;;;201.00;61.22;;;;;;;;;;5018932;28;20555;-73
2023/02/12 12:39:23;;;;;;;243.95;74.82;;;;;;;;;;5014846;28;20207;-72
2023/02/12 12:45:12;;;;;;;248.30;74.50;;;;;;;;;;5002640;28;20214;-73
2023/02/12 12:47:50;;;;;;;197.40;59.83;;;;;;;;;;5017380;28;20238;-72
2023/02/12 12:50:33;;;;;;;200.38;63.30;;;;;;;;;;5012108;28;20241;-75
2023/02/12 12:53:17;;;;;;;201.18;62.67;;;;;;;;;;5018109;28;20211;-72
2023/02/12 12:56:08;;;;;;;178.80;59.28;;;;;;;;;;5017271;28;20522;-72
2023/02/12 12:58:42;;;;;;;239.05;72.45;;;;;;;;;;4984768;28;20330;-72
2023/02/12 13:01:32;;;;;;;247.93;76.53;;;;;;;;;;5013121;28;20227;-74
2023/02/12 13:04:23;;;;;;;241.68;76.70;;;;;;;;;;5003905;28;20617;-73
2023/02/12 13:07:12;;;;;;;245.75;74.40;;;;;;;;;;5009763;28;20234;-74
2023/02/12 13:10:05;;;;;;;256.08;73.65;;;;;;;;;;5004446;28;20253;-73
2023/02/12 13:12:57;;;;;;;178.38;59.95;;;;;;;;;;5004300;28;20245;-74
2023/02/12 13:15:36;;;;;;;237.70;73.97;;;;;;;;;;5003928;28;20515;-73
2023/02/12 13:18:27;;;;;;;198.98;60.88;;;;;;;;;;5008428;28;20222;-73
2023/02/12 13:21:08;;;;;;;249.88;75.88;;;;;;;;;;5015030;28;20751;-73
2023/02/12 13:27:16;;;;;;;179.45;59.00;;;;;;;;;;5013787;28;20227;-72
2023/02/12 13:30:06;;;;;;;242.45;74.63;;;;;;;;;;5017300;28;20265;-71
2023/02/12 13:32:39;;;;;;;246.02;73.70;;;;;;;;;;5009206;28;20227;-73
2023/02/12 13:35:19;;;;;;;248.07;75.00;;;;;;;;;;5018005;28;20265;-73
2023/02/12 13:38:11;;;;;;;240.60;74.35;;;;;;;;;;5014789;28;20216;-72
2023/02/12 13:40:48;;;;;;;246.13;74.47;;;;;;;;;;5013267;28;20218;-73
2023/02/12 13:43:37;;;;;;;179.82;58.88;;;;;;;;;;5017174;28;20229;-72
2023/02/12 13:46:30;;;;;;;;;;;;;;;;;;;;;
2023/02/12 13:52:10;;;;;;;253.25;75.28;;;;;;;;;;4984052;28;20277;-72
2023/02/12 13:54:48;;;;;;;202.60;61.83;;;;;;;;;;5016265;28;20233;-74
2023/02/12 13:57:17;;;;;;;201.80;64.57;;;;;;;;;;5009729;28;20313;-73
2023/02/12 14:00:34;;;;;;;250.77;77.47;;;;;;;;;;5015133;28;20214;-74
2023/02/12 14:03:25;;;;;;;247.65;74.93;;;;;;;;;;4997389;28;20503;-73
2023/02/12 14:06:36;;;;;;;;;;;;;;;;;;;;;
2023/02/12 14:15:30;;;;;;;202.85;63.13;;;;;;;;;;4994657;28;20359;-74
2023/02/12 14:18:04;;;;;;;181.18;59.33;;;;;;;;;;4998915;28;20225;-73
2023/02/12 14:24:09;;;;;;;177.95;57.80;;;;;;;;;;5009634;28;20233;-73
2023/02/12 14:26:51;;;;;;;246.70;76.90;;;;;;;;;;5015581;28;20250;-73
2023/02/12 14:29:20;;;;;;;252.38;78.25;;;;;;;;;;5009816;28;20241;-73
2023/02/12 14:31:48;;;;;;;186.85;61.40;;;;;;;;;;5013873;28;20226;-72
2023/02/12 14:34:33;;;;;;;252.30;76.93;;;;;;;;;;5010764;28;20603;-72
2023/02/12 14:37:41;;;;;;;202.70;63.33;;;;;;;;;;5009051;28;20215;-73
2023/02/12 14:40:31;;;;;;;199.20;61.58;;;;;;;;;;5012006;28;20424;-73
2023/02/12 14:43:05;;;;;;;251.23;77.80;;;;;;;;;;5016036;28;20214;-74
2023/02/12 14:45:39;;;;;;;255.95;81.40;;;;;;;;;;5002832;28;20771;-73
2023/02/12 14:48:07;;;;;;;202.20;61.67;;;;;;;;;;5003482;28;20215;-74
2023/02/12 14:50:50;;;;;;;245.18;75.80;;;;;;;;;;5015570;28;20209;-74
2023/02/12 14:53:38;;;;;;;197.73;60.55;;;;;;;;;;5014532;28;20226;-74
2023/02/12 14:58:57;;;;;;;198.40;59.92;;;;;;;;;;5013814;28;20252;-74
2023/02/12 15:01:49;;;;;;;254.10;76.97;;;;;;;;;;5013512;28;20206;-73
2023/02/12 15:04:57;;;;;;;251.80;77.25;;;;;;;;;;5016000;28;20210;-73
2023/02/12 15:07:30;;;;;;;181.98;58.85;;;;;;;;;;4917212;29;20213;-72
2023/02/12 15:13:37;;;;;;;201.43;62.63;;;;;;;;;;4914515;29;20684;-74
2023/02/12 15:16:30;;;;;;;243.68;76.18;;;;;;;;;;4914908;29;20225;-74
2023/02/12 15:19:22;;;;;;;242.23;73.75;;;;;;;;;;4916579;29;20242;-74
2023/02/12 15:21:55;;;;;;;259.73;77.50;;;;;;;;;;4916109;29;20230;-74
2023/02/12 15:24:45;;;;;;;195.82;61.72;;;;;;;;;;5012025;28;20594;-73
2023/02/12 15:27:43;;;;;;;182.63;59.70;;;;;;;;;;5014738;28;20297;-73
2023/02/12 15:33:32;;;;;;;180.73;59.40;;;;;;;;;;4948616;28;20222;-74
2023/02/12 15:36:01;;;;;;;198.85;60.47;;;;;;;;;;4977073;28;20235;-73
2023/02/12 15:38:32;;;;;;;245.07;72.22;;;;;;;;;;4976853;28;20243;-74